Cox Field
KPRX : rendu visible

Aérodrome :











RETROUVEZ-NOUS SUR...

 
LOGIN :

S'inscrire | Disclaimer

   EN    FR    IT 

 









Légende :    VFR   VFR Marginal   IFR   IFR Intensif   IFR Très Intensif
Visi : 
Plafond : 
>= 8 km
>= 3000ft
5 à 8 km
1000 à 3000 ft
1500m à 5 km
500 à 1000 ft
800 à 1500m
200 à 500 ft
< 800m
< 200 ft
Symboles :   Orages  Brouillard  Fortes neiges  Fortes précipitations  Vent > 20 kt






- Altitude de l'aérodrome : 547 ft


KPRX - Cox Field

DERNIER METAR :
  • 220756Z AUTO 09008KT 10SM OVC005 18/18 A3009 RMK AO2 SLP200 T01830178 PNO $

METARs EXPIRÉS :
  • 220656Z AUTO 09007KT 3SM BR OVC005 18/18 A3010 RMK AO2 CIG 003V009 SLP203 T01830178 PNO $
  • 220602Z AUTO 07010KT 3SM BR OVC005 18/18 A3011 RMK AO2 PNO $
  • 220556Z AUTO 08009KT 1 3/4SM BR OVC005 18/18 A3011 RMK AO2 SLP209 6//// T01830178 10183 20178 401940172 58008 PNO $
  • 220540Z AUTO 08010KT 2SM BR OVC005 18/18 A3012 RMK AO2 PNO $
  • 220528Z AUTO 08009KT 1 3/4SM BR OVC005 18/18 A3012 RMK AO2 PNO $

TAF N/A
FIR KZFW / Amérique du Nord



MET'MAP, la Météo Aéronautique d'un coup d'oeil ! - Copyright ORBIFLY Décembre 2007 - Disclaimer

ORBIFLY MET'MAP TEAM :

Programmation & Développement : Alexandra Zaïnal
Sur une idée originale de : Baudouin d'Aumeries
Assistance à la programmation : Marc-Olivier Méhu
Soutien technique & logistique : Manuel Goepfert

Contact : metmap@orbifly.com




SOURCES & CREDITS :

   NOAA       Earth
Advisory